Terminal Aerodrome Forecast
Issued by NWS

Home | Current Version | Previous Version | Text Only | Print | Product List | Glossary On
Versions: 1 2 3 4 5 6 7 8 9 10 11 12 13 14 15
000
FTUS46 KSEW 301100
TAFBLI
TAF
KBLI 301120Z 3012/3112 04007KT P6SM BKN050 OVC090
     FM301700 12014KT P6SM -RA OVC050
     FM310000 16012KT P6SM -RA SCT015 OVC030
     FM311100 18006KT P6SM OVC015=

USA.gov is the U.S. government's official web portal to all federal, state and local government web resources and services.